sensor_id;sensor_type;location;lat;lon;timestamp;P1;durP1;ratioP1;P2;durP2;ratioP2
27489;SDS011;14925;51.026;13.752;2023-08-20T00:01:43;20.40;;;16.60;;
27489;SDS011;14925;51.026;13.752;2023-08-20T00:04:11;19.92;;;16.48;;
27489;SDS011;14925;51.026;13.752;2023-08-20T00:06:36;18.92;;;14.90;;
27489;SDS011;14925;51.026;13.752;2023-08-20T00:09:02;20.75;;;15.45;;
27489;SDS011;14925;51.026;13.752;2023-08-20T00:11:29;18.33;;;14.73;;
27489;SDS011;14925;51.026;13.752;2023-08-20T00:13:54;16.92;;;13.32;;
27489;SDS011;14925;51.026;13.752;2023-08-20T00:16:20;17.23;;;13.90;;
27489;SDS011;14925;51.026;13.752;2023-08-20T00:18:45;14.88;;;12.90;;
27489;SDS011;14925;51.026;13.752;2023-08-20T00:21:11;18.05;;;13.13;;
27489;SDS011;14925;51.026;13.752;2023-08-20T00:23:38;17.05;;;12.73;;
27489;SDS011;14925;51.026;13.752;2023-08-20T00:26:10;15.55;;;13.27;;
27489;SDS011;14925;51.026;13.752;2023-08-20T00:28:38;15.32;;;12.73;;
27489;SDS011;14925;51.026;13.752;2023-08-20T00:31:04;17.60;;;13.95;;
27489;SDS011;14925;51.026;13.752;2023-08-20T00:33:32;17.30;;;13.18;;
27489;SDS011;14925;51.026;13.752;2023-08-20T00:35:58;16.60;;;12.95;;
27489;SDS011;14925;51.026;13.752;2023-08-20T00:38:23;15.35;;;13.32;;
27489;SDS011;14925;51.026;13.752;2023-08-20T00:40:48;17.15;;;12.82;;
27489;SDS011;14925;51.026;13.752;2023-08-20T00:43:14;13.55;;;12.05;;
27489;SDS011;14925;51.026;13.752;2023-08-20T00:45:42;15.35;;;12.88;;
27489;SDS011;14925;51.026;13.752;2023-08-20T00:48:08;16.90;;;11.68;;
27489;SDS011;14925;51.026;13.752;2023-08-20T00:50:34;14.52;;;12.75;;
27489;SDS011;14925;51.026;13.752;2023-08-20T00:53:04;16.75;;;12.98;;
27489;SDS011;14925;51.026;13.752;2023-08-20T00:55:30;13.77;;;12.32;;
27489;SDS011;14925;51.026;13.752;2023-08-20T00:57:55;13.30;;;11.52;;
27489;SDS011;14925;51.026;13.752;2023-08-20T01:00:21;13.70;;;12.30;;
27489;SDS011;14925;51.026;13.752;2023-08-20T01:02:55;14.02;;;12.52;;
27489;SDS011;14925;51.026;13.752;2023-08-20T01:05:23;17.38;;;12.23;;
27489;SDS011;14925;51.026;13.752;2023-08-20T01:13:38;17.75;;;12.52;;
27489;SDS011;14925;51.026;13.752;2023-08-20T01:16:03;15.57;;;12.25;;
27489;SDS011;14925;51.026;13.752;2023-08-20T01:18:28;14.23;;;11.52;;
27489;SDS011;14925;51.026;13.752;2023-08-20T01:26:48;14.32;;;11.75;;
27489;SDS011;14925;51.026;13.752;2023-08-20T01:29:42;13.88;;;12.18;;
27489;SDS011;14925;51.026;13.752;2023-08-20T01:32:15;13.95;;;12.52;;
27489;SDS011;14925;51.026;13.752;2023-08-20T01:34:41;15.75;;;12.93;;
27489;SDS011;14925;51.026;13.752;2023-08-20T01:37:07;15.73;;;12.68;;
27489;SDS011;14925;51.026;13.752;2023-08-20T01:39:32;18.38;;;12.20;;
27489;SDS011;14925;51.026;13.752;2023-08-20T01:41:58;14.98;;;12.88;;
27489;SDS011;14925;51.026;13.752;2023-08-20T01:44:26;13.93;;;12.45;;
27489;SDS011;14925;51.026;13.752;2023-08-20T01:46:51;13.95;;;12.18;;
27489;SDS011;14925;51.026;13.752;2023-08-20T01:49:16;14.95;;;12.50;;
27489;SDS011;14925;51.026;13.752;2023-08-20T01:51:42;14.10;;;12.43;;
27489;SDS011;14925;51.026;13.752;2023-08-20T01:54:07;14.43;;;12.43;;
27489;SDS011;14925;51.026;13.752;2023-08-20T01:56:40;14.63;;;12.35;;
27489;SDS011;14925;51.026;13.752;2023-08-20T01:59:08;13.13;;;11.77;;
27489;SDS011;14925;51.026;13.752;2023-08-20T02:01:33;12.93;;;11.57;;
27489;SDS011;14925;51.026;13.752;2023-08-20T02:04:01;17.20;;;12.27;;
27489;SDS011;14925;51.026;13.752;2023-08-20T02:06:29;14.73;;;12.40;;
27489;SDS011;14925;51.026;13.752;2023-08-20T02:08:55;13.68;;;12.25;;
27489;SDS011;14925;51.026;13.752;2023-08-20T02:11:20;16.50;;;12.88;;
27489;SDS011;14925;51.026;13.752;2023-08-20T02:13:46;15.05;;;11.88;;
27489;SDS011;14925;51.026;13.752;2023-08-20T02:16:11;14.90;;;11.65;;
27489;SDS011;14925;51.026;13.752;2023-08-20T02:18:37;14.73;;;12.18;;
27489;SDS011;14925;51.026;13.752;2023-08-20T02:21:02;12.85;;;11.55;;
27489;SDS011;14925;51.026;13.752;2023-08-20T02:23:27;13.43;;;11.80;;
27489;SDS011;14925;51.026;13.752;2023-08-20T02:25:53;14.98;;;12.25;;
27489;SDS011;14925;51.026;13.752;2023-08-20T02:28:20;15.90;;;12.60;;
27489;SDS011;14925;51.026;13.752;2023-08-20T02:30:46;13.60;;;12.10;;
27489;SDS011;14925;51.026;13.752;2023-08-20T02:33:12;13.68;;;12.18;;
27489;SDS011;14925;51.026;13.752;2023-08-20T02:35:38;16.17;;;12.63;;
27489;SDS011;14925;51.026;13.752;2023-08-20T02:38:04;15.40;;;12.55;;
27489;SDS011;14925;51.026;13.752;2023-08-20T02:40:30;14.30;;;12.73;;
27489;SDS011;14925;51.026;13.752;2023-08-20T02:42:55;13.40;;;12.07;;
27489;SDS011;14925;51.026;13.752;2023-08-20T02:45:21;15.27;;;12.80;;
27489;SDS011;14925;51.026;13.752;2023-08-20T02:47:46;16.90;;;12.73;;
27489;SDS011;14925;51.026;13.752;2023-08-20T02:50:11;17.33;;;13.32;;
27489;SDS011;14925;51.026;13.752;2023-08-20T02:52:37;15.10;;;13.50;;
27489;SDS011;14925;51.026;13.752;2023-08-20T02:55:02;16.45;;;12.45;;
27489;SDS011;14925;51.026;13.752;2023-08-20T02:57:29;15.35;;;13.32;;
27489;SDS011;14925;51.026;13.752;2023-08-20T02:59:56;17.77;;;12.60;;
27489;SDS011;14925;51.026;13.752;2023-08-20T03:02:21;13.95;;;12.48;;
27489;SDS011;14925;51.026;13.752;2023-08-20T03:04:47;13.48;;;12.15;;
27489;SDS011;14925;51.026;13.752;2023-08-20T03:07:12;14.05;;;12.55;;
27489;SDS011;14925;51.026;13.752;2023-08-20T03:09:45;15.88;;;12.50;;
27489;SDS011;14925;51.026;13.752;2023-08-20T03:12:13;14.90;;;12.85;;
27489;SDS011;14925;51.026;13.752;2023-08-20T03:14:43;14.32;;;12.55;;
27489;SDS011;14925;51.026;13.752;2023-08-20T03:17:09;13.43;;;12.07;;
27489;SDS011;14925;51.026;13.752;2023-08-20T03:19:35;13.50;;;12.10;;
27489;SDS011;14925;51.026;13.752;2023-08-20T03:22:03;17.95;;;13.90;;
27489;SDS011;14925;51.026;13.752;2023-08-20T03:24:29;14.00;;;12.60;;
27489;SDS011;14925;51.026;13.752;2023-08-20T03:26:54;16.58;;;12.40;;
27489;SDS011;14925;51.026;13.752;2023-08-20T03:29:20;14.27;;;12.88;;
27489;SDS011;14925;51.026;13.752;2023-08-20T03:31:45;16.88;;;12.98;;
27489;SDS011;14925;51.026;13.752;2023-08-20T03:34:10;14.80;;;13.10;;
27489;SDS011;14925;51.026;13.752;2023-08-20T03:36:36;15.18;;;13.20;;
27489;SDS011;14925;51.026;13.752;2023-08-20T03:39:01;14.57;;;12.82;;
27489;SDS011;14925;51.026;13.752;2023-08-20T03:41:28;16.05;;;13.13;;
27489;SDS011;14925;51.026;13.752;2023-08-20T03:43:56;15.45;;;12.60;;
27489;SDS011;14925;51.026;13.752;2023-08-20T03:46:22;15.48;;;13.65;;
27489;SDS011;14925;51.026;13.752;2023-08-20T03:48:47;16.83;;;13.43;;
27489;SDS011;14925;51.026;13.752;2023-08-20T03:51:13;14.30;;;12.63;;
27489;SDS011;14925;51.026;13.752;2023-08-20T03:53:38;15.50;;;13.90;;
27489;SDS011;14925;51.026;13.752;2023-08-20T03:56:04;14.68;;;13.10;;
27489;SDS011;14925;51.026;13.752;2023-08-20T03:58:29;14.27;;;12.68;;
27489;SDS011;14925;51.026;13.752;2023-08-20T04:00:55;14.35;;;12.73;;
27489;SDS011;14925;51.026;13.752;2023-08-20T04:03:20;16.02;;;12.93;;
27489;SDS011;14925;51.026;13.752;2023-08-20T04:05:49;16.50;;;13.00;;
27489;SDS011;14925;51.026;13.752;2023-08-20T04:08:14;16.00;;;12.95;;
27489;SDS011;14925;51.026;13.752;2023-08-20T04:10:45;14.63;;;12.50;;
27489;SDS011;14925;51.026;13.752;2023-08-20T04:13:13;14.95;;;13.07;;
27489;SDS011;14925;51.026;13.752;2023-08-20T04:15:39;15.85;;;12.02;;
27489;SDS011;14925;51.026;13.752;2023-08-20T04:18:10;17.65;;;13.00;;
27489;SDS011;14925;51.026;13.752;2023-08-20T04:20:36;16.75;;;10.75;;
27489;SDS011;14925;51.026;13.752;2023-08-20T04:23:01;12.15;;;10.57;;
27489;SDS011;14925;51.026;13.752;2023-08-20T04:25:29;16.83;;;10.38;;
27489;SDS011;14925;51.026;13.752;2023-08-20T04:27:54;12.82;;;10.07;;
27489;SDS011;14925;51.026;13.752;2023-08-20T04:30:20;12.52;;;9.45;;
27489;SDS011;14925;51.026;13.752;2023-08-20T04:32:45;11.90;;;9.50;;
27489;SDS011;14925;51.026;13.752;2023-08-20T04:35:10;15.82;;;9.00;;
27489;SDS011;14925;51.026;13.752;2023-08-20T04:37:36;13.85;;;9.57;;
27489;SDS011;14925;51.026;13.752;2023-08-20T04:40:02;12.40;;;9.60;;
27489;SDS011;14925;51.026;13.752;2023-08-20T04:42:30;12.95;;;9.10;;
27489;SDS011;14925;51.026;13.752;2023-08-20T04:44:55;14.32;;;8.95;;
27489;SDS011;14925;51.026;13.752;2023-08-20T04:47:21;14.50;;;8.75;;
27489;SDS011;14925;51.026;13.752;2023-08-20T04:49:46;14.65;;;8.93;;
27489;SDS011;14925;51.026;13.752;2023-08-20T04:52:12;14.43;;;8.95;;
27489;SDS011;14925;51.026;13.752;2023-08-20T04:54:37;16.95;;;9.10;;
27489;SDS011;14925;51.026;13.752;2023-08-20T04:57:02;11.90;;;8.90;;
27489;SDS011;14925;51.026;13.752;2023-08-20T04:59:30;14.18;;;9.18;;
27489;SDS011;14925;51.026;13.752;2023-08-20T05:01:56;12.95;;;9.40;;
27489;SDS011;14925;51.026;13.752;2023-08-20T05:04:22;13.75;;;8.98;;
27489;SDS011;14925;51.026;13.752;2023-08-20T05:06:47;13.10;;;8.65;;
27489;SDS011;14925;51.026;13.752;2023-08-20T05:09:13;13.00;;;8.85;;
27489;SDS011;14925;51.026;13.752;2023-08-20T05:11:38;18.10;;;9.40;;
27489;SDS011;14925;51.026;13.752;2023-08-20T05:14:04;11.98;;;8.50;;
27489;SDS011;14925;51.026;13.752;2023-08-20T05:16:29;15.85;;;9.18;;
27489;SDS011;14925;51.026;13.752;2023-08-20T05:18:54;11.95;;;8.90;;
27489;SDS011;14925;51.026;13.752;2023-08-20T05:21:20;12.63;;;8.77;;
27489;SDS011;14925;51.026;13.752;2023-08-20T05:23:45;16.20;;;8.70;;
27489;SDS011;14925;51.026;13.752;2023-08-20T05:26:10;10.77;;;8.63;;
27489;SDS011;14925;51.026;13.752;2023-08-20T05:28:39;15.50;;;8.90;;
27489;SDS011;14925;51.026;13.752;2023-08-20T05:31:05;12.35;;;8.60;;
27489;SDS011;14925;51.026;13.752;2023-08-20T05:33:30;14.32;;;8.75;;
27489;SDS011;14925;51.026;13.752;2023-08-20T05:35:59;14.48;;;8.30;;
27489;SDS011;14925;51.026;13.752;2023-08-20T05:38:25;15.15;;;8.90;;
27489;SDS011;14925;51.026;13.752;2023-08-20T05:40:53;14.57;;;8.73;;
27489;SDS011;14925;51.026;13.752;2023-08-20T05:43:18;13.35;;;8.98;;
27489;SDS011;14925;51.026;13.752;2023-08-20T05:45:44;13.15;;;8.65;;
27489;SDS011;14925;51.026;13.752;2023-08-20T05:48:09;13.57;;;8.93;;
27489;SDS011;14925;51.026;13.752;2023-08-20T05:50:35;12.55;;;8.48;;
27489;SDS011;14925;51.026;13.752;2023-08-20T05:53:00;15.25;;;8.65;;
27489;SDS011;14925;51.026;13.752;2023-08-20T05:55:26;12.65;;;8.65;;
27489;SDS011;14925;51.026;13.752;2023-08-20T05:57:54;13.55;;;8.20;;
27489;SDS011;14925;51.026;13.752;2023-08-20T06:00:23;13.18;;;8.95;;
27489;SDS011;14925;51.026;13.752;2023-08-20T06:02:49;13.85;;;8.90;;
27489;SDS011;14925;51.026;13.752;2023-08-20T06:05:15;10.05;;;8.70;;
27489;SDS011;14925;51.026;13.752;2023-08-20T06:07:40;14.38;;;9.13;;
27489;SDS011;14925;51.026;13.752;2023-08-20T06:10:06;11.27;;;9.15;;
27489;SDS011;14925;51.026;13.752;2023-08-20T06:12:32;12.20;;;8.93;;
27489;SDS011;14925;51.026;13.752;2023-08-20T06:14:58;12.13;;;8.73;;
27489;SDS011;14925;51.026;13.752;2023-08-20T06:17:26;11.10;;;8.38;;
27489;SDS011;14925;51.026;13.752;2023-08-20T06:19:54;17.00;;;8.80;;
27489;SDS011;14925;51.026;13.752;2023-08-20T06:22:19;11.93;;;8.13;;
27489;SDS011;14925;51.026;13.752;2023-08-20T06:24:48;13.30;;;8.90;;
27489;SDS011;14925;51.026;13.752;2023-08-20T06:27:13;13.02;;;8.15;;
27489;SDS011;14925;51.026;13.752;2023-08-20T06:29:50;18.45;;;8.80;;
27489;SDS011;14925;51.026;13.752;2023-08-20T06:32:19;11.73;;;8.77;;
27489;SDS011;14925;51.026;13.752;2023-08-20T06:34:44;10.57;;;8.63;;
27489;SDS011;14925;51.026;13.752;2023-08-20T06:37:16;13.27;;;8.90;;
27489;SDS011;14925;51.026;13.752;2023-08-20T06:40:14;14.25;;;8.77;;
27489;SDS011;14925;51.026;13.752;2023-08-20T06:42:39;13.85;;;7.90;;
27489;SDS011;14925;51.026;13.752;2023-08-20T06:45:05;12.68;;;8.95;;
27489;SDS011;14925;51.026;13.752;2023-08-20T06:47:34;11.02;;;8.20;;
27489;SDS011;14925;51.026;13.752;2023-08-20T06:50:08;13.20;;;8.80;;
27489;SDS011;14925;51.026;13.752;2023-08-20T06:52:34;12.75;;;9.02;;
27489;SDS011;14925;51.026;13.752;2023-08-20T06:54:59;9.65;;;8.15;;
27489;SDS011;14925;51.026;13.752;2023-08-20T07:01:26;18.20;;;9.00;;
27489;SDS011;14925;51.026;13.752;2023-08-20T07:03:54;12.27;;;8.48;;
27489;SDS011;14925;51.026;13.752;2023-08-20T07:06:42;11.43;;;8.95;;
27489;SDS011;14925;51.026;13.752;2023-08-20T07:09:07;13.75;;;8.40;;
27489;SDS011;14925;51.026;13.752;2023-08-20T07:11:35;12.95;;;8.57;;
27489;SDS011;14925;51.026;13.752;2023-08-20T07:14:02;10.63;;;8.35;;
27489;SDS011;14925;51.026;13.752;2023-08-20T07:16:29;11.10;;;8.55;;
27489;SDS011;14925;51.026;13.752;2023-08-20T07:18:56;11.18;;;7.80;;
27489;SDS011;14925;51.026;13.752;2023-08-20T07:21:21;11.98;;;8.10;;
27489;SDS011;14925;51.026;13.752;2023-08-20T07:23:47;10.23;;;8.10;;
27489;SDS011;14925;51.026;13.752;2023-08-20T07:26:12;11.07;;;8.35;;
27489;SDS011;14925;51.026;13.752;2023-08-20T07:28:38;12.18;;;8.15;;
27489;SDS011;14925;51.026;13.752;2023-08-20T07:31:31;10.82;;;8.23;;
27489;SDS011;14925;51.026;13.752;2023-08-20T07:33:58;10.43;;;8.05;;
27489;SDS011;14925;51.026;13.752;2023-08-20T07:36:24;13.13;;;8.63;;
27489;SDS011;14925;51.026;13.752;2023-08-20T07:38:55;10.95;;;7.97;;
27489;SDS011;14925;51.026;13.752;2023-08-20T07:41:20;11.45;;;8.15;;
27489;SDS011;14925;51.026;13.752;2023-08-20T07:43:46;13.00;;;7.88;;
27489;SDS011;14925;51.026;13.752;2023-08-20T07:46:12;10.10;;;8.23;;
27489;SDS011;14925;51.026;13.752;2023-08-20T07:48:38;11.90;;;7.78;;
27489;SDS011;14925;51.026;13.752;2023-08-20T07:51:04;12.27;;;7.75;;
27489;SDS011;14925;51.026;13.752;2023-08-20T07:53:30;12.77;;;7.78;;
27489;SDS011;14925;51.026;13.752;2023-08-20T07:55:56;13.70;;;7.85;;
27489;SDS011;14925;51.026;13.752;2023-08-20T07:58:22;12.43;;;7.47;;
27489;SDS011;14925;51.026;13.752;2023-08-20T08:00:47;13.32;;;7.15;;
27489;SDS011;14925;51.026;13.752;2023-08-20T08:03:15;11.13;;;8.05;;
27489;SDS011;14925;51.026;13.752;2023-08-20T08:05:42;11.25;;;7.65;;
27489;SDS011;14925;51.026;13.752;2023-08-20T08:08:11;9.38;;;7.70;;
27489;SDS011;14925;51.026;13.752;2023-08-20T08:10:36;8.80;;;7.15;;
27489;SDS011;14925;51.026;13.752;2023-08-20T08:13:02;12.13;;;8.32;;
27489;SDS011;14925;51.026;13.752;2023-08-20T08:15:27;10.07;;;7.63;;
27489;SDS011;14925;51.026;13.752;2023-08-20T08:17:55;13.40;;;8.20;;
27489;SDS011;14925;51.026;13.752;2023-08-20T08:20:20;11.73;;;7.63;;
27489;SDS011;14925;51.026;13.752;2023-08-20T08:22:46;11.15;;;7.63;;
27489;SDS011;14925;51.026;13.752;2023-08-20T08:25:11;9.85;;;7.53;;
27489;SDS011;14925;51.026;13.752;2023-08-20T08:27:36;8.82;;;7.68;;
27489;SDS011;14925;51.026;13.752;2023-08-20T08:30:02;12.70;;;8.10;;
27489;SDS011;14925;51.026;13.752;2023-08-20T08:32:28;11.48;;;7.72;;
27489;SDS011;14925;51.026;13.752;2023-08-20T08:34:53;10.45;;;7.53;;
27489;SDS011;14925;51.026;13.752;2023-08-20T08:37:21;11.07;;;7.60;;
27489;SDS011;14925;51.026;13.752;2023-08-20T08:39:47;13.32;;;7.80;;
27489;SDS011;14925;51.026;13.752;2023-08-20T08:42:12;14.90;;;8.07;;
27489;SDS011;14925;51.026;13.752;2023-08-20T08:44:38;9.18;;;7.43;;
27489;SDS011;14925;51.026;13.752;2023-08-20T08:47:06;10.40;;;6.80;;
27489;SDS011;14925;51.026;13.752;2023-08-20T08:49:33;10.85;;;6.75;;
27489;SDS011;14925;51.026;13.752;2023-08-20T08:51:58;7.70;;;6.88;;
27489;SDS011;14925;51.026;13.752;2023-08-20T08:54:24;11.77;;;7.03;;
27489;SDS011;14925;51.026;13.752;2023-08-20T08:56:49;12.85;;;7.47;;
27489;SDS011;14925;51.026;13.752;2023-08-20T08:59:15;13.00;;;6.75;;
27489;SDS011;14925;51.026;13.752;2023-08-20T09:01:43;9.95;;;7.70;;
27489;SDS011;14925;51.026;13.752;2023-08-20T09:04:12;10.57;;;7.78;;
27489;SDS011;14925;51.026;13.752;2023-08-20T09:06:44;9.40;;;7.13;;
27489;SDS011;14925;51.026;13.752;2023-08-20T09:09:13;10.45;;;7.72;;
27489;SDS011;14925;51.026;13.752;2023-08-20T09:11:39;8.73;;;6.90;;
27489;SDS011;14925;51.026;13.752;2023-08-20T09:14:04;12.02;;;7.78;;
27489;SDS011;14925;51.026;13.752;2023-08-20T09:16:30;11.85;;;8.45;;
27489;SDS011;14925;51.026;13.752;2023-08-20T09:18:57;13.30;;;9.00;;
27489;SDS011;14925;51.026;13.752;2023-08-20T09:21:26;9.93;;;8.88;;
27489;SDS011;14925;51.026;13.752;2023-08-20T09:23:54;14.73;;;9.25;;
27489;SDS011;14925;51.026;13.752;2023-08-20T09:26:19;11.32;;;9.40;;
27489;SDS011;14925;51.026;13.752;2023-08-20T09:28:45;15.75;;;9.63;;
27489;SDS011;14925;51.026;13.752;2023-08-20T09:31:13;13.93;;;9.68;;
27489;SDS011;14925;51.026;13.752;2023-08-20T09:33:52;13.90;;;10.60;;
27489;SDS011;14925;51.026;13.752;2023-08-20T09:36:18;17.10;;;10.80;;
27489;SDS011;14925;51.026;13.752;2023-08-20T09:38:44;13.82;;;10.43;;
27489;SDS011;14925;51.026;13.752;2023-08-20T09:41:09;13.57;;;9.65;;
27489;SDS011;14925;51.026;13.752;2023-08-20T09:43:37;13.95;;;10.82;;
27489;SDS011;14925;51.026;13.752;2023-08-20T09:46:03;13.15;;;10.25;;
27489;SDS011;14925;51.026;13.752;2023-08-20T09:48:29;10.88;;;9.73;;
27489;SDS011;14925;51.026;13.752;2023-08-20T09:50:59;10.77;;;9.68;;
27489;SDS011;14925;51.026;13.752;2023-08-20T09:53:30;15.32;;;10.00;;
27489;SDS011;14925;51.026;13.752;2023-08-20T09:56:03;12.85;;;9.55;;
27489;SDS011;14925;51.026;13.752;2023-08-20T09:58:33;13.65;;;10.35;;
27489;SDS011;14925;51.026;13.752;2023-08-20T10:00:59;13.30;;;9.38;;
27489;SDS011;14925;51.026;13.752;2023-08-20T10:03:27;15.85;;;9.52;;
27489;SDS011;14925;51.026;13.752;2023-08-20T10:05:54;12.23;;;9.68;;
27489;SDS011;14925;51.026;13.752;2023-08-20T10:08:21;14.23;;;9.70;;
27489;SDS011;14925;51.026;13.752;2023-08-20T10:10:49;12.93;;;10.18;;
27489;SDS011;14925;51.026;13.752;2023-08-20T10:13:15;13.30;;;9.82;;
27489;SDS011;14925;51.026;13.752;2023-08-20T10:15:43;12.50;;;9.30;;
27489;SDS011;14925;51.026;13.752;2023-08-20T10:18:10;13.40;;;9.15;;
27489;SDS011;14925;51.026;13.752;2023-08-20T10:20:36;10.02;;;8.40;;
27489;SDS011;14925;51.026;13.752;2023-08-20T10:23:06;13.23;;;8.52;;
27489;SDS011;14925;51.026;13.752;2023-08-20T10:25:32;11.00;;;8.90;;
27489;SDS011;14925;51.026;13.752;2023-08-20T10:31:03;10.40;;;8.70;;
27489;SDS011;14925;51.026;13.752;2023-08-20T10:33:57;15.00;;;8.97;;
27489;SDS011;14925;51.026;13.752;2023-08-20T10:36:23;13.98;;;9.20;;
27489;SDS011;14925;51.026;13.752;2023-08-20T10:38:56;10.95;;;8.65;;
27489;SDS011;14925;51.026;13.752;2023-08-20T10:41:30;10.95;;;8.52;;
27489;SDS011;14925;51.026;13.752;2023-08-20T10:43:59;8.95;;;7.47;;
27489;SDS011;14925;51.026;13.752;2023-08-20T10:46:28;11.98;;;7.97;;
27489;SDS011;14925;51.026;13.752;2023-08-20T10:48:59;10.55;;;7.65;;
27489;SDS011;14925;51.026;13.752;2023-08-20T11:01:47;12.15;;;7.97;;
27489;SDS011;14925;51.026;13.752;2023-08-20T11:04:21;10.23;;;7.32;;
27489;SDS011;14925;51.026;13.752;2023-08-20T11:06:52;11.98;;;7.43;;
27489;SDS011;14925;51.026;13.752;2023-08-20T11:09:19;8.18;;;7.00;;
27489;SDS011;14925;51.026;13.752;2023-08-20T11:11:46;9.90;;;6.68;;
27489;SDS011;14925;51.026;13.752;2023-08-20T11:14:12;8.93;;;6.55;;
27489;SDS011;14925;51.026;13.752;2023-08-20T11:16:39;9.85;;;6.85;;
27489;SDS011;14925;51.026;13.752;2023-08-20T11:19:04;9.38;;;6.50;;
27489;SDS011;14925;51.026;13.752;2023-08-20T11:21:33;9.43;;;6.60;;
27489;SDS011;14925;51.026;13.752;2023-08-20T11:24:08;7.47;;;6.10;;
27489;SDS011;14925;51.026;13.752;2023-08-20T11:26:34;10.40;;;6.18;;
27489;SDS011;14925;51.026;13.752;2023-08-20T11:29:00;10.38;;;7.00;;
27489;SDS011;14925;51.026;13.752;2023-08-20T11:31:27;9.07;;;6.70;;
27489;SDS011;14925;51.026;13.752;2023-08-20T11:33:56;7.50;;;5.80;;
27489;SDS011;14925;51.026;13.752;2023-08-20T11:36:22;8.55;;;4.90;;
27489;SDS011;14925;51.026;13.752;2023-08-20T11:38:54;6.35;;;4.43;;
27489;SDS011;14925;51.026;13.752;2023-08-20T11:41:20;4.63;;;4.20;;
27489;SDS011;14925;51.026;13.752;2023-08-20T11:43:46;6.40;;;4.82;;
27489;SDS011;14925;51.026;13.752;2023-08-20T11:46:13;5.55;;;4.70;;
27489;SDS011;14925;51.026;13.752;2023-08-20T11:48:57;7.72;;;5.13;;
27489;SDS011;14925;51.026;13.752;2023-08-20T11:51:24;8.02;;;4.35;;
27489;SDS011;14925;51.026;13.752;2023-08-20T11:53:50;5.13;;;4.53;;
27489;SDS011;14925;51.026;13.752;2023-08-20T11:56:15;6.68;;;4.22;;
27489;SDS011;14925;51.026;13.752;2023-08-20T11:58:41;6.60;;;4.60;;
27489;SDS011;14925;51.026;13.752;2023-08-20T12:01:09;6.55;;;5.35;;
27489;SDS011;14925;51.026;13.752;2023-08-20T12:03:37;7.57;;;5.07;;
27489;SDS011;14925;51.026;13.752;2023-08-20T12:06:18;8.00;;;5.70;;
27489;SDS011;14925;51.026;13.752;2023-08-20T12:11:27;8.13;;;5.70;;
27489;SDS011;14925;51.026;13.752;2023-08-20T12:13:53;10.88;;;6.60;;
27489;SDS011;14925;51.026;13.752;2023-08-20T12:16:18;9.10;;;6.65;;
27489;SDS011;14925;51.026;13.752;2023-08-20T12:18:45;8.05;;;5.93;;
27489;SDS011;14925;51.026;13.752;2023-08-20T12:21:11;11.15;;;5.85;;
27489;SDS011;14925;51.026;13.752;2023-08-20T12:23:40;6.88;;;5.65;;
27489;SDS011;14925;51.026;13.752;2023-08-20T12:26:05;6.32;;;5.68;;
27489;SDS011;14925;51.026;13.752;2023-08-20T12:28:33;9.75;;;5.75;;
27489;SDS011;14925;51.026;13.752;2023-08-20T12:30:59;7.97;;;5.50;;
27489;SDS011;14925;51.026;13.752;2023-08-20T12:33:25;7.43;;;5.13;;
27489;SDS011;14925;51.026;13.752;2023-08-20T12:35:53;9.63;;;5.47;;
27489;SDS011;14925;51.026;13.752;2023-08-20T12:38:19;7.95;;;5.97;;
27489;SDS011;14925;51.026;13.752;2023-08-20T12:40:44;7.47;;;5.70;;
27489;SDS011;14925;51.026;13.752;2023-08-20T12:43:10;8.20;;;5.18;;
27489;SDS011;14925;51.026;13.752;2023-08-20T12:45:35;8.85;;;5.68;;
27489;SDS011;14925;51.026;13.752;2023-08-20T12:48:01;8.30;;;5.95;;
27489;SDS011;14925;51.026;13.752;2023-08-20T12:50:28;9.13;;;5.53;;
27489;SDS011;14925;51.026;13.752;2023-08-20T12:52:54;7.70;;;5.43;;
27489;SDS011;14925;51.026;13.752;2023-08-20T12:55:19;7.88;;;5.30;;
27489;SDS011;14925;51.026;13.752;2023-08-20T12:57:55;8.07;;;5.43;;
27489;SDS011;14925;51.026;13.752;2023-08-20T13:00:21;8.52;;;5.70;;
27489;SDS011;14925;51.026;13.752;2023-08-20T13:02:47;6.93;;;5.80;;
27489;SDS011;14925;51.026;13.752;2023-08-20T13:05:13;8.32;;;5.70;;
27489;SDS011;14925;51.026;13.752;2023-08-20T13:07:39;7.38;;;5.85;;
27489;SDS011;14925;51.026;13.752;2023-08-20T13:10:05;8.93;;;5.78;;
27489;SDS011;14925;51.026;13.752;2023-08-20T13:12:33;7.82;;;6.13;;
27489;SDS011;14925;51.026;13.752;2023-08-20T13:14:58;8.95;;;5.90;;
27489;SDS011;14925;51.026;13.752;2023-08-20T13:17:24;7.72;;;5.72;;
27489;SDS011;14925;51.026;13.752;2023-08-20T13:19:50;8.73;;;5.75;;
27489;SDS011;14925;51.026;13.752;2023-08-20T13:22:15;7.65;;;5.57;;
27489;SDS011;14925;51.026;13.752;2023-08-20T13:24:40;6.50;;;5.38;;
27489;SDS011;14925;51.026;13.752;2023-08-20T13:27:06;10.50;;;5.47;;
27489;SDS011;14925;51.026;13.752;2023-08-20T13:29:31;9.85;;;5.95;;
27489;SDS011;14925;51.026;13.752;2023-08-20T13:31:57;9.75;;;5.88;;
27489;SDS011;14925;51.026;13.752;2023-08-20T13:34:22;9.70;;;5.50;;
27489;SDS011;14925;51.026;13.752;2023-08-20T13:36:48;6.10;;;5.50;;
27489;SDS011;14925;51.026;13.752;2023-08-20T13:39:13;11.13;;;5.65;;
27489;SDS011;14925;51.026;13.752;2023-08-20T13:41:39;9.10;;;5.93;;
27489;SDS011;14925;51.026;13.752;2023-08-20T13:44:05;7.43;;;5.47;;
27489;SDS011;14925;51.026;13.752;2023-08-20T13:46:31;7.93;;;5.78;;
27489;SDS011;14925;51.026;13.752;2023-08-20T13:48:57;6.60;;;5.50;;
27489;SDS011;14925;51.026;13.752;2023-08-20T13:51:25;7.75;;;5.97;;
27489;SDS011;14925;51.026;13.752;2023-08-20T13:53:53;9.35;;;5.38;;
27489;SDS011;14925;51.026;13.752;2023-08-20T13:56:19;8.93;;;5.63;;
27489;SDS011;14925;51.026;13.752;2023-08-20T13:58:44;10.20;;;5.15;;
27489;SDS011;14925;51.026;13.752;2023-08-20T14:01:09;9.50;;;5.47;;
27489;SDS011;14925;51.026;13.752;2023-08-20T14:03:36;8.27;;;5.43;;
27489;SDS011;14925;51.026;13.752;2023-08-20T14:06:01;7.10;;;5.68;;
27489;SDS011;14925;51.026;13.752;2023-08-20T14:08:28;8.07;;;5.22;;
27489;SDS011;14925;51.026;13.752;2023-08-20T14:10:53;7.05;;;5.30;;
27489;SDS011;14925;51.026;13.752;2023-08-20T14:13:18;7.55;;;5.63;;
27489;SDS011;14925;51.026;13.752;2023-08-20T14:15:44;10.20;;;5.85;;
27489;SDS011;14925;51.026;13.752;2023-08-20T14:18:09;8.05;;;5.50;;
27489;SDS011;14925;51.026;13.752;2023-08-20T14:20:34;8.90;;;5.78;;
27489;SDS011;14925;51.026;13.752;2023-08-20T14:23:00;9.35;;;6.28;;
27489;SDS011;14925;51.026;13.752;2023-08-20T14:25:25;9.23;;;5.68;;
27489;SDS011;14925;51.026;13.752;2023-08-20T14:27:50;7.28;;;5.72;;
27489;SDS011;14925;51.026;13.752;2023-08-20T14:30:16;7.00;;;5.63;;
27489;SDS011;14925;51.026;13.752;2023-08-20T14:32:41;10.15;;;6.20;;
27489;SDS011;14925;51.026;13.752;2023-08-20T14:35:07;7.63;;;5.90;;
27489;SDS011;14925;51.026;13.752;2023-08-20T14:37:34;8.05;;;6.07;;
27489;SDS011;14925;51.026;13.752;2023-08-20T14:39:59;6.85;;;5.88;;
27489;SDS011;14925;51.026;13.752;2023-08-20T14:42:30;7.55;;;6.20;;
27489;SDS011;14925;51.026;13.752;2023-08-20T14:44:56;8.82;;;6.30;;
27489;SDS011;14925;51.026;13.752;2023-08-20T14:47:21;10.57;;;6.00;;
27489;SDS011;14925;51.026;13.752;2023-08-20T14:49:47;10.63;;;6.00;;
27489;SDS011;14925;51.026;13.752;2023-08-20T14:52:12;8.02;;;5.90;;